^^
Meteo Knjazevac Station Historical Data
Daily Summary for April 18, 2021 Units:  Both    English   Metric
Daily Weekly Monthly Yearly Custom
  High: Low: Average:
Temperature: 27.9 °F /  -2.3 °C 15.1 °F /  -9.4 °C 22.5 °F /  -5.3 °C
Dew Point: 22.1 °F /  -5.5 °C 13.4 °F /  -10.3 °C 18.9 °F /  -7.3 °C
Humidity: 96% 73% 86%
Wind Speed: 9mph /  14.5km/h - 3.5mph /  5.6km/h
Wind Gust: 18mph /  29km/h - -
Wind- - WSW
Pressure: 30.29 in /  1025.6 hPa 30.15 in /  1020.9 hPa -
Precipitation: 0.00 in /  0 mm    
Historical Graphs
 
 
Tabular Data for April 18, 2021
Time Temperature Dew Point Pressure Wind Wind Speed Wind Gust Humidity Rainfall Rate (Hourly) solar Conditions
00:00 21.2 °F /  -6 °C 20.2 °F /  -6.6 °C 30.15in /  1020.9hPa NW 1mph /  1.6km/h 3mph /  4.8km/h 96% 0.00in /  0mm 0 W/m2
00:10 21.3 °F /  -5.9 °C 20.4 °F /  -6.4 °C 30.16in /  1021.2hPa North 1mph /  1.6km/h 2mph /  3.2km/h 96% 0.00in /  0mm 0 W/m2
00:20 21.4 °F /  -5.9 °C 20.4 °F /  -6.4 °C 30.16in /  1021.2hPa West 1mph /  1.6km/h 2mph /  3.2km/h 96% 0.00in /  0mm 0 W/m2
00:30 21.2 °F /  -6 °C 20.2 °F /  -6.6 °C 30.16in /  1021.2hPa West 1mph /  1.6km/h 2mph /  3.2km/h 96% 0.00in /  0mm 0 W/m2
00:40 21 °F /  -6.1 °C 20.1 °F /  -6.6 °C 30.16in /  1021.2hPa Calm   2mph /  3.2km/h 96% 0.00in /  0mm 0 W/m2
00:50 20.9 °F /  -6.2 °C 19.9 °F /  -6.7 °C 30.17in /  1021.6hPa Calm   2mph /  3.2km/h 96% 0.00in /  0mm 0 W/m2
01:00 20.7 °F /  -6.3 °C 19.5 °F /  -6.9 °C 30.17in /  1021.6hPa Calm     95% 0.00in /  0mm 0 W/m2
01:10 20.3 °F /  -6.5 °C 19.1 °F /  -7.2 °C 30.17in /  1021.6hPa North 1mph /  1.6km/h 2mph /  3.2km/h 95% 0.00in /  0mm 0 W/m2
01:20 20 °F /  -6.7 °C 18.8 °F /  -7.3 °C 30.17in /  1021.6hPa Calm   1mph /  1.6km/h 95% 0.00in /  0mm 0 W/m2
01:30 19.8 °F /  -6.8 °C 18.6 °F /  -7.4 °C 30.18in /  1021.9hPa Calm   2mph /  3.2km/h 95% 0.00in /  0mm 0 W/m2
01:40 19.6 °F /  -6.9 °C 18.4 °F /  -7.6 °C 30.18in /  1021.9hPa Calm   1mph /  1.6km/h 95% 0.00in /  0mm 0 W/m2
01:50 18.9 °F /  -7.3 °C 17.5 °F /  -8.1 °C 30.18in /  1021.9hPa WNW 1mph /  1.6km/h 2mph /  3.2km/h 94% 0.00in /  0mm 0 W/m2
02:00 18.3 °F /  -7.6 °C 16.9 °F /  -8.4 °C 30.18in /  1021.9hPa Calm   2mph /  3.2km/h 94% 0.00in /  0mm 0 W/m2
02:10 17.8 °F /  -7.9 °C 16.3 °F /  -8.7 °C 30.18in /  1021.9hPa Calm   2mph /  3.2km/h 94% 0.00in /  0mm 0 W/m2
02:20 17.6 °F /  -8 °C 16.2 °F /  -8.8 °C 30.18in /  1021.9hPa Calm   2mph /  3.2km/h 94% 0.00in /  0mm 0 W/m2
02:40 16.7 °F /  -8.5 °C 15 °F /  -9.4 °C 30.19in /  1022.2hPa Calm   2mph /  3.2km/h 93% 0.00in /  0mm 0 W/m2
02:50 16.2 °F /  -8.8 °C 14.5 °F /  -9.7 °C 30.19in /  1022.2hPa Calm   2mph /  3.2km/h 93% 0.00in /  0mm 0 W/m2
03:00 16.2 °F /  -8.8 °C 14.7 °F /  -9.6 °C 30.19in /  1022.2hPa NNW 1mph /  1.6km/h 3mph /  4.8km/h 94% 0.00in /  0mm 0 W/m2
03:10 16 °F /  -8.9 °C 14.6 °F /  -9.7 °C 30.19in /  1022.2hPa NW 1mph /  1.6km/h 2mph /  3.2km/h 94% 0.00in /  0mm 0 W/m2
03:20 15.8 °F /  -9 °C 14.4 °F /  -9.8 °C 30.19in /  1022.2hPa NNW 1mph /  1.6km/h 3mph /  4.8km/h 94% 0.00in /  0mm 0 W/m2
03:30 16 °F /  -8.9 °C 14.8 °F /  -9.6 °C 30.19in /  1022.2hPa NW 1mph /  1.6km/h 2mph /  3.2km/h 95% 0.00in /  0mm 0 W/m2
03:40 15.8 °F /  -9 °C 14.4 °F /  -9.8 °C 30.19in /  1022.2hPa WNW 1mph /  1.6km/h 3mph /  4.8km/h 94% 0.00in /  0mm 0 W/m2
03:50 15.8 °F /  -9 °C 14.4 °F /  -9.8 °C 30.19in /  1022.2hPa NW 1mph /  1.6km/h 2mph /  3.2km/h 94% 0.00in /  0mm 0 W/m2
04:00 15.8 °F /  -9 °C 14.6 °F /  -9.7 °C 30.19in /  1022.2hPa Calm   2mph /  3.2km/h 95% 0.00in /  0mm 0 W/m2
04:10 16.2 °F /  -8.8 °C 15 °F /  -9.4 °C 30.19in /  1022.2hPa NW 1mph /  1.6km/h 2mph /  3.2km/h 95% 0.00in /  0mm 0 W/m2
04:20 16.2 °F /  -8.8 °C 15 °F /  -9.4 °C 30.19in /  1022.2hPa North 1mph /  1.6km/h 2mph /  3.2km/h 95% 0.00in /  0mm 0 W/m2
04:30 16.2 °F /  -8.8 °C 15 °F /  -9.4 °C 30.19in /  1022.2hPa WNW 2mph /  3.2km/h 4mph /  6.4km/h 95% 0.00in /  0mm 0 W/m2
04:40 16.2 °F /  -8.8 °C 15 °F /  -9.4 °C 30.19in /  1022.2hPa WNW 1mph /  1.6km/h 3mph /  4.8km/h 95% 0.00in /  0mm 0 W/m2
04:50 16.2 °F /  -8.8 °C 15 °F /  -9.4 °C 30.19in /  1022.2hPa West 1mph /  1.6km/h 3mph /  4.8km/h 95% 0.00in /  0mm 0 W/m2
05:00 16.2 °F /  -8.8 °C 15 °F /  -9.4 °C 30.19in /  1022.2hPa WNW 2mph /  3.2km/h 3mph /  4.8km/h 95% 0.00in /  0mm 0 W/m2
05:10 16.5 °F /  -8.6 °C 15.3 °F /  -9.3 °C 30.20in /  1022.6hPa West 2mph /  3.2km/h 3mph /  4.8km/h 95% 0.00in /  0mm 0 W/m2
05:30 16.2 °F /  -8.8 °C 15 °F /  -9.4 °C 30.20in /  1022.6hPa WNW 2mph /  3.2km/h 4mph /  6.4km/h 95% 0.00in /  0mm 0 W/m2
05:40 16.2 °F /  -8.8 °C 14.7 °F /  -9.6 °C 30.21in /  1022.9hPa West 1mph /  1.6km/h 3mph /  4.8km/h 94% 0.00in /  0mm 0 W/m2
05:50 15.8 °F /  -9 °C 14.4 °F /  -9.8 °C 30.21in /  1022.9hPa WNW 2mph /  3.2km/h 3mph /  4.8km/h 94% 0.00in /  0mm 0 W/m2
06:00 15.4 °F /  -9.2 °C 13.8 °F /  -10.1 °C 30.21in /  1022.9hPa WNW 2mph /  3.2km/h 4mph /  6.4km/h 93% 0.00in /  0mm 0 W/m2
06:10 15.4 °F /  -9.2 °C 14 °F /  -10 °C 30.21in /  1022.9hPa West 2mph /  3.2km/h 4mph /  6.4km/h 94% 0.00in /  0mm 0 W/m2
06:20 15.3 °F /  -9.3 °C 13.8 °F /  -10.1 °C 30.21in /  1022.9hPa WNW 2mph /  3.2km/h 4mph /  6.4km/h 94% 0.00in /  0mm 0 W/m2
06:30 15.1 °F /  -9.4 °C 13.4 °F /  -10.3 °C 30.21in /  1022.9hPa WNW 2mph /  3.2km/h 4mph /  6.4km/h 93% 0.00in /  0mm 0 W/m2
06:40 15.1 °F /  -9.4 °C 13.7 °F /  -10.2 °C 30.22in /  1023.2hPa WNW 2mph /  3.2km/h 5mph /  8km/h 94% 0.00in /  0mm 0 W/m2
06:50 15.6 °F /  -9.1 °C 14.4 °F /  -9.8 °C 30.22in /  1023.2hPa WNW 1mph /  1.6km/h 4mph /  6.4km/h 95% 0.00in /  0mm 0 W/m2
07:00 15.6 °F /  -9.1 °C 14.5 °F /  -9.7 °C 30.22in /  1023.2hPa WNW 2mph /  3.2km/h 5mph /  8km/h 95% 0.00in /  0mm 2 W/m2
07:10 15.4 °F /  -9.2 °C 14 °F /  -10 °C 30.22in /  1023.2hPa WNW 2mph /  3.2km/h 7mph /  11.3km/h 94% 0.00in /  0mm 5 W/m2
07:20 15.6 °F /  -9.1 °C 14.2 °F /  -9.9 °C 30.21in /  1022.9hPa West 1mph /  1.6km/h 3mph /  4.8km/h 94% 0.00in /  0mm 9 W/m2
07:30 16.2 °F /  -8.8 °C 15 °F /  -9.4 °C 30.22in /  1023.2hPa West 1mph /  1.6km/h 2mph /  3.2km/h 95% 0.00in /  0mm 15 W/m2
07:40 16.3 °F /  -8.7 °C 15.2 °F /  -9.3 °C 30.22in /  1023.2hPa West 1mph /  1.6km/h 2mph /  3.2km/h 95% 0.00in /  0mm 18 W/m2
07:50 16.5 °F /  -8.6 °C 15.3 °F /  -9.3 °C 30.22in /  1023.2hPa West 1mph /  1.6km/h 3mph /  4.8km/h 95% 0.00in /  0mm 24 W/m2
08:00 16.9 °F /  -8.4 °C 15.7 °F /  -9.1 °C 30.22in /  1023.2hPa West 1mph /  1.6km/h 3mph /  4.8km/h 95% 0.00in /  0mm 35 W/m2
08:10 17.2 °F /  -8.2 °C 16.1 °F /  -8.8 °C 30.23in /  1023.6hPa West 2mph /  3.2km/h 3mph /  4.8km/h 95% 0.00in /  0mm 38 W/m2
08:20 17.8 °F /  -7.9 °C 16.6 °F /  -8.6 °C 30.23in /  1023.6hPa WSW 3mph /  4.8km/h 6mph /  9.7km/h 95% 0.00in /  0mm 53 W/m2
08:30 18.5 °F /  -7.5 °C 17.3 °F /  -8.2 °C 30.23in /  1023.6hPa WSW 5mph /  8km/h 7mph /  11.3km/h 95% 0.00in /  0mm 66 W/m2
08:40 19.6 °F /  -6.9 °C 18.4 °F /  -7.6 °C 30.23in /  1023.6hPa WSW 5mph /  8km/h 8mph /  12.9km/h 95% 0.00in /  0mm 70 W/m2
08:50 20.6 °F /  -6.3 °C 19.4 °F /  -7 °C 30.24in /  1023.9hPa WSW 6mph /  9.7km/h 10mph /  16.1km/h 95% 0.00in /  0mm 74 W/m2
09:00 21.4 °F /  -5.9 °C 19.9 °F /  -6.7 °C 30.24in /  1023.9hPa SW 5mph /  8km/h 10mph /  16.1km/h 94% 0.00in /  0mm 69 W/m2
09:10 21.9 °F /  -5.6 °C 20.2 °F /  -6.6 °C 30.24in /  1023.9hPa SW 3mph /  4.8km/h 7mph /  11.3km/h 93% 0.00in /  0mm 78 W/m2
09:20 22.6 °F /  -5.2 °C 20.4 °F /  -6.4 °C 30.24in /  1023.9hPa SW 7mph /  11.3km/h 11mph /  17.7km/h 91% 0.00in /  0mm 80 W/m2
09:30 23.2 °F /  -4.9 °C 20.4 °F /  -6.4 °C 30.24in /  1023.9hPa WSW 6mph /  9.7km/h 10mph /  16.1km/h 89% 0.00in /  0mm 102 W/m2
09:40 23.5 °F /  -4.7 °C 20.8 °F /  -6.2 °C 30.24in /  1023.9hPa WSW 3mph /  4.8km/h 10mph /  16.1km/h 89% 0.00in /  0mm 96 W/m2
09:50 23.9 °F /  -4.5 °C 20.9 °F /  -6.2 °C 30.25in /  1024.3hPa SW 5mph /  8km/h 10mph /  16.1km/h 88% 0.00in /  0mm 93 W/m2
10:00 24.3 °F /  -4.3 °C 20.7 °F /  -6.3 °C 30.25in /  1024.3hPa SW 5mph /  8km/h 13mph /  20.9km/h 86% 0.00in /  0mm 102 W/m2
10:10 24.4 °F /  -4.2 °C 20.9 °F /  -6.2 °C 30.25in /  1024.3hPa SW 6mph /  9.7km/h 9mph /  14.5km/h 86% 0.00in /  0mm 111 W/m2
10:20 24.6 °F /  -4.1 °C 20.8 °F /  -6.2 °C 30.25in /  1024.3hPa WSW 6mph /  9.7km/h 10mph /  16.1km/h 85% 0.00in /  0mm 100 W/m2
10:30 24.8 °F /  -4 °C 20.9 °F /  -6.2 °C 30.25in /  1024.3hPa SW 5mph /  8km/h 9mph /  14.5km/h 85% 0.00in /  0mm 118 W/m2
10:40 25 °F /  -3.9 °C 21.1 °F /  -6.1 °C 30.25in /  1024.3hPa SW 5mph /  8km/h 10mph /  16.1km/h 85% 0.00in /  0mm 117 W/m2
10:50 25.2 °F /  -3.8 °C 21.3 °F /  -5.9 °C 30.24in /  1023.9hPa WSW 6mph /  9.7km/h 13mph /  20.9km/h 85% 0.00in /  0mm 133 W/m2
11:00 25.3 °F /  -3.7 °C 21.5 °F /  -5.8 °C 30.24in /  1023.9hPa SW 6mph /  9.7km/h 12mph /  19.3km/h 85% 0.00in /  0mm 134 W/m2
11:10 25.5 °F /  -3.6 °C 21.9 °F /  -5.6 °C 30.24in /  1023.9hPa SW 5mph /  8km/h 10mph /  16.1km/h 86% 0.00in /  0mm 138 W/m2
11:20 25.7 °F /  -3.5 °C 22.1 °F /  -5.5 °C 30.24in /  1023.9hPa SW 5mph /  8km/h 8mph /  12.9km/h 86% 0.00in /  0mm 164 W/m2
11:30 25.9 °F /  -3.4 °C 22 °F /  -5.6 °C 30.24in /  1023.9hPa SW 5mph /  8km/h 10mph /  16.1km/h 85% 0.00in /  0mm 138 W/m2
11:40 26.1 °F /  -3.3 °C 21.9 °F /  -5.6 °C 30.23in /  1023.6hPa WSW 3mph /  4.8km/h 9mph /  14.5km/h 84% 0.00in /  0mm 120 W/m2
11:50 26.2 °F /  -3.2 °C 21.8 °F /  -5.7 °C 30.23in /  1023.6hPa WSW 6mph /  9.7km/h 9mph /  14.5km/h 83% 0.00in /  0mm 140 W/m2
12:00 26.2 °F /  -3.2 °C 21.8 °F /  -5.7 °C 30.24in /  1023.9hPa WSW 6mph /  9.7km/h 10mph /  16.1km/h 83% 0.00in /  0mm 116 W/m2
12:10 26.4 °F /  -3.1 °C 22 °F /  -5.6 °C 30.23in /  1023.6hPa WSW 6mph /  9.7km/h 10mph /  16.1km/h 83% 0.00in /  0mm 134 W/m2
12:20 26.6 °F /  -3 °C 21.3 °F /  -5.9 °C 30.23in /  1023.6hPa West 5mph /  8km/h 12mph /  19.3km/h 80% 0.00in /  0mm 123 W/m2
12:30 26.6 °F /  -3 °C 21 °F /  -6.1 °C 30.24in /  1023.9hPa WSW 5mph /  8km/h 10mph /  16.1km/h 79% 0.00in /  0mm 126 W/m2
12:40 26.6 °F /  -3 °C 20.4 °F /  -6.4 °C 30.24in /  1023.9hPa WSW 7mph /  11.3km/h 16mph /  25.7km/h 77% 0.00in /  0mm 153 W/m2
12:50 26.6 °F /  -3 °C 19.7 °F /  -6.8 °C 30.23in /  1023.6hPa WSW 8mph /  12.9km/h 16mph /  25.7km/h 75% 0.00in /  0mm 164 W/m2
13:00 27 °F /  -2.8 °C 20.1 °F /  -6.6 °C 30.23in /  1023.6hPa WSW 6mph /  9.7km/h 13mph /  20.9km/h 75% 0.00in /  0mm 296 W/m2
13:10 27.3 °F /  -2.6 °C 20.4 °F /  -6.4 °C 30.23in /  1023.6hPa WSW 7mph /  11.3km/h 15mph /  24.1km/h 75% 0.00in /  0mm 200 W/m2
13:20 27.7 °F /  -2.4 °C 20.8 °F /  -6.2 °C 30.23in /  1023.6hPa WSW 8mph /  12.9km/h 14mph /  22.5km/h 75% 0.00in /  0mm 206 W/m2
13:30 27.7 °F /  -2.4 °C 20.8 °F /  -6.2 °C 30.23in /  1023.6hPa West 8mph /  12.9km/h 15mph /  24.1km/h 75% 0.00in /  0mm 196 W/m2
13:40 27.9 °F /  -2.3 °C 20.6 °F /  -6.3 °C 30.23in /  1023.6hPa West 9mph /  14.5km/h 16mph /  25.7km/h 74% 0.00in /  0mm 272 W/m2
13:50 27.3 °F /  -2.6 °C 19.8 °F /  -6.8 °C 30.23in /  1023.6hPa West 9mph /  14.5km/h 17mph /  27.4km/h 73% 0.00in /  0mm 198 W/m2
14:00 27.3 °F /  -2.6 °C 20.1 °F /  -6.6 °C 30.23in /  1023.6hPa WSW 8mph /  12.9km/h 14mph /  22.5km/h 74% 0.00in /  0mm 125 W/m2
14:10 27 °F /  -2.8 °C 19.5 °F /  -6.9 °C 30.23in /  1023.6hPa WSW 8mph /  12.9km/h 17mph /  27.4km/h 73% 0.00in /  0mm 123 W/m2
14:20 27 °F /  -2.8 °C 19.8 °F /  -6.8 °C 30.24in /  1023.9hPa WSW 7mph /  11.3km/h 14mph /  22.5km/h 74% 0.00in /  0mm 88 W/m2
14:30 27 °F /  -2.8 °C 20.1 °F /  -6.6 °C 30.24in /  1023.9hPa WSW 6mph /  9.7km/h 13mph /  20.9km/h 75% 0.00in /  0mm 85 W/m2
14:40 27.1 °F /  -2.7 °C 20.3 °F /  -6.5 °C 30.24in /  1023.9hPa WSW 6mph /  9.7km/h 13mph /  20.9km/h 75% 0.00in /  0mm 90 W/m2
14:50 27 °F /  -2.8 °C 19.5 °F /  -6.9 °C 30.24in /  1023.9hPa WSW 8mph /  12.9km/h 18mph /  29km/h 73% 0.00in /  0mm 79 W/m2
15:00 26.8 °F /  -2.9 °C 19.3 °F /  -7.1 °C 30.24in /  1023.9hPa WSW 8mph /  12.9km/h 15mph /  24.1km/h 73% 0.00in /  0mm 76 W/m2
15:10 26.8 °F /  -2.9 °C 19.6 °F /  -6.9 °C 30.24in /  1023.9hPa WSW 6mph /  9.7km/h 12mph /  19.3km/h 74% 0.00in /  0mm 63 W/m2
15:20 26.8 °F /  -2.9 °C 21.1 °F /  -6.1 °C 30.24in /  1023.9hPa SW 5mph /  8km/h 10mph /  16.1km/h 79% 0.00in /  0mm 46 W/m2
15:30 26.6 °F /  -3 °C 21.3 °F /  -5.9 °C 30.24in /  1023.9hPa WSW 3mph /  4.8km/h 8mph /  12.9km/h 80% 0.00in /  0mm 32 W/m2
15:40 26.6 °F /  -3 °C 21 °F /  -6.1 °C 30.24in /  1023.9hPa WSW 8mph /  12.9km/h 12mph /  19.3km/h 79% 0.00in /  0mm 19 W/m2
15:50 26.4 °F /  -3.1 °C 21.1 °F /  -6.1 °C 30.25in /  1024.3hPa WSW 6mph /  9.7km/h 10mph /  16.1km/h 80% 0.00in /  0mm 14 W/m2
16:00 26.2 °F /  -3.2 °C 21.2 °F /  -6 °C 30.25in /  1024.3hPa WSW 5mph /  8km/h 9mph /  14.5km/h 81% 0.00in /  0mm 8 W/m2
16:10 26.2 °F /  -3.2 °C 21.2 °F /  -6 °C 30.25in /  1024.3hPa WSW 6mph /  9.7km/h 7mph /  11.3km/h 81% 0.00in /  0mm 7 W/m2
16:20 26.1 °F /  -3.3 °C 21 °F /  -6.1 °C 30.25in /  1024.3hPa WSW 5mph /  8km/h 7mph /  11.3km/h 81% 0.00in /  0mm 3 W/m2
16:30 25.9 °F /  -3.4 °C 20.9 °F /  -6.2 °C 30.25in /  1024.3hPa WSW 5mph /  8km/h 8mph /  12.9km/h 81% 0.00in /  0mm 0 W/m2
16:40 25.9 °F /  -3.4 °C 20.9 °F /  -6.2 °C 30.25in /  1024.3hPa WSW 6mph /  9.7km/h 9mph /  14.5km/h 81% 0.00in /  0mm 0 W/m2
16:50 25.7 °F /  -3.5 °C 20.7 °F /  -6.3 °C 30.25in /  1024.3hPa SW 6mph /  9.7km/h 9mph /  14.5km/h 81% 0.00in /  0mm 0 W/m2
17:00 25.7 °F /  -3.5 °C 21.3 °F /  -5.9 °C 30.25in /  1024.3hPa WSW 5mph /  8km/h 9mph /  14.5km/h 83% 0.00in /  0mm 0 W/m2
17:10 25.5 °F /  -3.6 °C 21.1 °F /  -6.1 °C 30.25in /  1024.3hPa WSW 2mph /  3.2km/h 5mph /  8km/h 83% 0.00in /  0mm 0 W/m2
17:20 25.5 °F /  -3.6 °C 21.1 °F /  -6.1 °C 30.26in /  1024.6hPa WSW 2mph /  3.2km/h 6mph /  9.7km/h 83% 0.00in /  0mm 0 W/m2
17:30 25.5 °F /  -3.6 °C 21.4 °F /  -5.9 °C 30.26in /  1024.6hPa WSW 3mph /  4.8km/h 5mph /  8km/h 84% 0.00in /  0mm 0 W/m2
17:40 25.5 °F /  -3.6 °C 21.3 °F /  -5.9 °C 30.26in /  1024.6hPa WSW 2mph /  3.2km/h 5mph /  8km/h 84% 0.00in /  0mm 0 W/m2
17:50 25.3 °F /  -3.7 °C 21.2 °F /  -6 °C 30.27in /  1024.9hPa WSW 3mph /  4.8km/h 6mph /  9.7km/h 84% 0.00in /  0mm 0 W/m2
18:00 25.3 °F /  -3.7 °C 21.2 °F /  -6 °C 30.27in /  1024.9hPa WSW 3mph /  4.8km/h 6mph /  9.7km/h 84% 0.00in /  0mm 0 W/m2
18:10 25.3 °F /  -3.7 °C 21.2 °F /  -6 °C 30.27in /  1024.9hPa WSW 2mph /  3.2km/h 6mph /  9.7km/h 84% 0.00in /  0mm 0 W/m2
18:20 25.2 °F /  -3.8 °C 21 °F /  -6.1 °C 30.27in /  1024.9hPa WSW 1mph /  1.6km/h 5mph /  8km/h 84% 0.00in /  0mm 0 W/m2
18:30 25.2 °F /  -3.8 °C 21 °F /  -6.1 °C 30.27in /  1024.9hPa SW 1mph /  1.6km/h 4mph /  6.4km/h 84% 0.00in /  0mm 0 W/m2
18:40 25.2 °F /  -3.8 °C 21.3 °F /  -5.9 °C 30.27in /  1024.9hPa WSW 1mph /  1.6km/h 3mph /  4.8km/h 85% 0.00in /  0mm 0 W/m2
18:50 25 °F /  -3.9 °C 20.8 °F /  -6.2 °C 30.27in /  1024.9hPa SW 2mph /  3.2km/h 6mph /  9.7km/h 84% 0.00in /  0mm 0 W/m2
19:00 25.2 °F /  -3.8 °C 20.7 °F /  -6.3 °C 30.27in /  1024.9hPa WSW 3mph /  4.8km/h 6mph /  9.7km/h 83% 0.00in /  0mm 0 W/m2
19:10 25.2 °F /  -3.8 °C 20.7 °F /  -6.3 °C 30.27in /  1024.9hPa WSW 3mph /  4.8km/h 7mph /  11.3km/h 83% 0.00in /  0mm 0 W/m2
19:20 25.2 °F /  -3.8 °C 20.1 °F /  -6.6 °C 30.27in /  1024.9hPa WSW 3mph /  4.8km/h 6mph /  9.7km/h 81% 0.00in /  0mm 0 W/m2
19:30 25.2 °F /  -3.8 °C 20.1 °F /  -6.6 °C 30.27in /  1024.9hPa WSW 3mph /  4.8km/h 6mph /  9.7km/h 81% 0.00in /  0mm 0 W/m2
19:40 25.2 °F /  -3.8 °C 20.1 °F /  -6.6 °C 30.27in /  1024.9hPa WSW 5mph /  8km/h 8mph /  12.9km/h 81% 0.00in /  0mm 0 W/m2
19:50 25.2 °F /  -3.8 °C 20.1 °F /  -6.6 °C 30.27in /  1024.9hPa WSW 6mph /  9.7km/h 8mph /  12.9km/h 81% 0.00in /  0mm 0 W/m2
20:00 25 °F /  -3.9 °C 20 °F /  -6.7 °C 30.27in /  1024.9hPa WSW 5mph /  8km/h 10mph /  16.1km/h 81% 0.00in /  0mm 0 W/m2
20:10 25 °F /  -3.9 °C 20.5 °F /  -6.4 °C 30.27in /  1024.9hPa WSW 5mph /  8km/h 8mph /  12.9km/h 83% 0.00in /  0mm 0 W/m2
20:20 25 °F /  -3.9 °C 20.5 °F /  -6.4 °C 30.27in /  1024.9hPa SW 2mph /  3.2km/h 6mph /  9.7km/h 83% 0.00in /  0mm 0 W/m2
20:30 24.8 °F /  -4 °C 19.8 °F /  -6.8 °C 30.27in /  1024.9hPa SSW 3mph /  4.8km/h 7mph /  11.3km/h 81% 0.00in /  0mm 0 W/m2
20:40 24.8 °F /  -4 °C 19.8 °F /  -6.8 °C 30.27in /  1024.9hPa SW 5mph /  8km/h 7mph /  11.3km/h 81% 0.00in /  0mm 0 W/m2
20:50 24.8 °F /  -4 °C 19.8 °F /  -6.8 °C 30.28in /  1025.3hPa SW 3mph /  4.8km/h 10mph /  16.1km/h 81% 0.00in /  0mm 0 W/m2
21:00 24.8 °F /  -4 °C 19.8 °F /  -6.8 °C 30.28in /  1025.3hPa WSW 5mph /  8km/h 8mph /  12.9km/h 81% 0.00in /  0mm 0 W/m2
21:10 25 °F /  -3.9 °C 20 °F /  -6.7 °C 30.28in /  1025.3hPa WSW 5mph /  8km/h 7mph /  11.3km/h 81% 0.00in /  0mm 0 W/m2
21:20 24.8 °F /  -4 °C 19.8 °F /  -6.8 °C 30.28in /  1025.3hPa SW 2mph /  3.2km/h 7mph /  11.3km/h 81% 0.00in /  0mm 0 W/m2
21:30 24.8 °F /  -4 °C 19.8 °F /  -6.8 °C 30.28in /  1025.3hPa SW 3mph /  4.8km/h 5mph /  8km/h 81% 0.00in /  0mm 0 W/m2
21:40 24.6 °F /  -4.1 °C 19.6 °F /  -6.9 °C 30.28in /  1025.3hPa SW 2mph /  3.2km/h 5mph /  8km/h 81% 0.00in /  0mm 0 W/m2
21:50 24.6 °F /  -4.1 °C 19.6 °F /  -6.9 °C 30.28in /  1025.3hPa WSW 3mph /  4.8km/h 5mph /  8km/h 81% 0.00in /  0mm 0 W/m2
22:00 24.8 °F /  -4 °C 19.8 °F /  -6.8 °C 30.28in /  1025.3hPa WSW 2mph /  3.2km/h 7mph /  11.3km/h 81% 0.00in /  0mm 0 W/m2
22:10 24.6 °F /  -4.1 °C 19.6 °F /  -6.9 °C 30.28in /  1025.3hPa WSW 3mph /  4.8km/h 6mph /  9.7km/h 81% 0.00in /  0mm 0 W/m2
22:20 24.6 °F /  -4.1 °C 19.6 °F /  -6.9 °C 30.28in /  1025.3hPa WSW 3mph /  4.8km/h 6mph /  9.7km/h 81% 0.00in /  0mm 0 W/m2
22:30 24.6 °F /  -4.1 °C 19.6 °F /  -6.9 °C 30.28in /  1025.3hPa SW 5mph /  8km/h 8mph /  12.9km/h 81% 0.00in /  0mm 0 W/m2
22:40 24.6 °F /  -4.1 °C 19.6 °F /  -6.9 °C 30.29in /  1025.6hPa SW 3mph /  4.8km/h 8mph /  12.9km/h 81% 0.00in /  0mm 0 W/m2
22:50 24.6 °F /  -4.1 °C 19.6 °F /  -6.9 °C 30.29in /  1025.6hPa SW 5mph /  8km/h 9mph /  14.5km/h 81% 0.00in /  0mm 0 W/m2
23:00 24.8 °F /  -4 °C 19.8 °F /  -6.8 °C 30.29in /  1025.6hPa WSW 5mph /  8km/h 8mph /  12.9km/h 81% 0.00in /  0mm 0 W/m2
23:10 24.8 °F /  -4 °C 19.8 °F /  -6.8 °C 30.29in /  1025.6hPa WSW 5mph /  8km/h 9mph /  14.5km/h 81% 0.00in /  0mm 0 W/m2
23:20 24.8 °F /  -4 °C 19.5 °F /  -6.9 °C 30.29in /  1025.6hPa WSW 6mph /  9.7km/h 10mph /  16.1km/h 80% 0.00in /  0mm 0 W/m2
23:30 24.8 °F /  -4 °C 19.5 °F /  -6.9 °C 30.29in /  1025.6hPa WSW 3mph /  4.8km/h 12mph /  19.3km/h 80% 0.00in /  0mm 0 W/m2
23:40 24.8 °F /  -4 °C 19.5 °F /  -6.9 °C 30.29in /  1025.6hPa WSW 6mph /  9.7km/h 8mph /  12.9km/h 80% 0.00in /  0mm 0 W/m2
23:50 25 °F /  -3.9 °C 19.7 °F /  -6.8 °C 30.29in /  1025.6hPa SW 8mph /  12.9km/h 12mph /  19.3km/h 80% 0.00in /  0mm 0 W/m2
Knjazevac, Serbia
Compliments of Weather Underground - 2 mb